Campanya meteocatpedra

Dades EMA Alcanar

?
?
Resum diari 21:00 TU
Dades diàries de l'estació meteorològica
Temperatura mitjana 25.8 °C
Temperatura màxima 29.8 °C 14:05 TU
Temperatura mínima 21.9 °C 5:15 TU
Humitat relativa mitjana 77%
Precipitació acumulada 0.0 mm
Ratxa màxima del vent (2 m) 15.5 km/h - 161º 14:30 TU
Irradiació solar global 23.5 MJ/m2

El tram horari està expressat en Temps Universal (TU). Cal sumar una hora en horari d'hivern i dues en horari d'estiu per passar a l'hora oficial.

Alcanar

Metadades estació meteorol´gica
Municipi Alcanar
Comarca Montsià
Altitud 24 m
Data alta 06.05.1991
Estat actual Operativa
Dades de període
Període
TU
TM
°C
TX
°C
TN
°C
HRM
%
PPT
mm
VVM (2 m)
km/h
DVM (2 m)
graus
VVX (2 m)
km/h
RS
W/m2
00:00 - 00:30 22.5 22.6 22.5 90 0.0 2.2 330 4.7 0
00:30 - 01:00 22.4 22.5 22.3 90 0.0 2.5 334 5.0 0
01:00 - 01:30 22.3 22.3 22.2 91 0.0 2.9 324 5.4 0
01:30 - 02:00 22.2 22.3 22.2 91 0.0 2.5 333 5.0 0
02:00 - 02:30 22.2 22.2 22.1 91 0.0 2.2 332 4.3 0
02:30 - 03:00 22.1 22.1 22.1 92 0.0 2.9 329 4.7 0
03:00 - 03:30 22.1 22.1 22.0 92 0.0 2.9 329 5.4 0
03:30 - 04:00 22.1 22.1 22.0 92 0.0 2.9 327 5.4 0
04:00 - 04:30 22.0 22.0 21.9 92 0.0 2.9 326 5.0 0
04:30 - 05:00 21.9 22.0 21.9 93 0.0 2.9 328 5.4 0
05:00 - 05:30 21.9 22.0 21.9 93 0.0 2.5 332 5.0 6
05:30 - 06:00 22.1 22.5 22.0 93 0.0 2.9 328 5.8 38
06:00 - 06:30 23.1 23.9 22.5 92 0.0 2.9 327 5.4 100
06:30 - 07:00 24.7 25.4 24.0 87 0.0 1.4 308 4.3 183
07:00 - 07:30 25.8 26.1 25.5 81 0.0 2.9 241 7.2 269
07:30 - 08:00 26.8 27.5 26.1 75 0.0 2.9 206 7.6 399
08:00 - 08:30 27.2 27.6 26.9 73 0.0 5.0 155 11.2 478
08:30 - 09:00 27.1 27.3 26.9 74 0.0 6.1 157 11.9 553
09:00 - 09:30 27.5 27.9 27.1 72 0.0 5.4 155 12.2 633
09:30 - 10:00 27.7 28.2 27.2 71 0.0 4.3 143 11.2 701
10:00 - 10:30 27.7 28.0 27.3 72 0.0 5.0 149 11.5 759
10:30 - 11:00 27.9 28.3 27.6 71 0.0 4.3 157 10.4 799
11:00 - 11:30 28.2 28.6 27.9 69 0.0 4.3 148 10.4 828
11:30 - 12:00 28.4 28.7 28.1 68 0.0 4.7 155 12.2 844
12:00 - 12:30 28.8 29.2 28.4 68 0.0 6.1 152 14.4 843
12:30 - 13:00 29.0 29.5 28.6 66 0.0 6.1 153 13.7 830
13:00 - 13:30 29.4 29.7 29.0 63 0.0 5.8 156 13.7 802
13:30 - 14:00 29.2 29.6 28.9 64 0.0 6.8 157 14.8 761
14:00 - 14:30 29.2 29.8 28.8 65 0.0 6.1 150 12.2 704
14:30 - 15:00 29.2 29.5 28.9 66 0.0 6.5 164 15.5 640
15:00 - 15:30 29.1 29.5 28.8 65 0.0 5.0 156 10.8 562
15:30 - 16:00 29.0 29.3 28.8 64 0.0 5.8 158 13.0 475
16:00 - 16:30 28.7 29.1 28.5 65 0.0 4.7 174 10.4 361
16:30 - 17:00 28.6 28.9 28.3 65 0.0 4.7 160 10.8 273
17:00 - 17:30 28.1 28.3 27.8 67 0.0 3.2 167 8.3 170
17:30 - 18:00 27.3 27.7 26.9 69 0.0 2.5 175 6.5 33
18:00 - 18:30 27.0 27.1 26.8 71 0.0 1.4 178 4.3 15
18:30 - 19:00 26.7 26.8 26.6 73 0.0 1.1 202 4.0 3
19:00 - 19:30 26.2 26.6 25.5 75 0.0 0.7 294 2.2 0
19:30 - 20:00 25.1 25.5 24.6 79 0.0 1.4 305 3.2 0
20:00 - 20:30 24.3 24.6 24.2 81 0.0 2.5 321 5.4 0
20:30 - 21:00 24.0 24.2 23.7 80 0.0 2.2 320 5.0 0
21:00 - 21:30 23.5 23.7 23.4 77 0.0 3.2 324 5.8 0

Les dades en taronja només han passat un control de qualitat automàtic. Resta pendent la seva validació definitiva.